Upper Holland, Pennsylvania
Current Conditions -  °F | °C
As of 11:54 PM on Sunday 21 Dec 2014 (Local Time) from KPNE Reporting Station
Overcast Overcast  
Wind Chill: 33°   Ceiling: 2600
Heat Index: 33°   Visibility: 10mi
Dew Point: 23°   Wind: 3mph
Humidity: 66%   Direction: 350°N
Pressure: 30.35"   Gusts: NA
Location:  40.1496°N, 74.9856°W
Report Text: KPNE 220454Z AUTO 35003KT 10SM OVC026 01/M05 A3035 RMK AO2 SLP277 T00061050 400501017 TSNO
Loading
Personal Weather Stations






























Interactive Weather Map New forecast layout! Learn more

10-Day Weather Forecast

Advertisements
Track Severe Weather on mobile